createdAt,value
2022-08-26T00:01:55.112Z,22.75
2022-08-26T00:04:25.457Z,22.67
2022-08-26T00:06:56.850Z,23.99
2022-08-26T00:09:25.744Z,23.43
2022-08-26T00:11:54.761Z,22.87
2022-08-26T00:14:28.307Z,22.62
2022-08-26T00:16:58.865Z,22.46
2022-08-26T00:19:26.526Z,23.29
2022-08-26T00:21:54.210Z,23.67
2022-08-26T00:24:23.726Z,22.75
2022-08-26T00:26:51.826Z,22.43
2022-08-26T00:29:19.725Z,22.28
2022-08-26T00:31:49.371Z,22.18
2022-08-26T00:34:19.426Z,23.33
2022-08-26T00:36:49.371Z,22.86
2022-08-26T00:39:20.397Z,22.33
2022-08-26T00:41:48.251Z,22.15
2022-08-26T00:44:15.787Z,22.06
2022-08-26T00:46:48.894Z,22.01
2022-08-26T00:49:36.422Z,22.72
2022-08-26T00:52:09.819Z,22.43
2022-08-26T00:54:52.665Z,22.13
2022-08-26T00:57:22.344Z,22.03
2022-08-26T00:59:55.223Z,21.98
2022-08-26T01:02:23.611Z,21.96
2022-08-26T01:04:57.253Z,22.86
2022-08-26T01:07:31.380Z,22.27
2022-08-26T01:10:05.560Z,22.05
2022-08-26T01:12:40.329Z,21.98
2022-08-26T01:15:10.464Z,21.95
2022-08-26T01:17:41.364Z,22.02
2022-08-26T01:20:25.206Z,22.71
2022-08-26T01:23:03.245Z,22.18
2022-08-26T01:25:33.933Z,22.01
2022-08-26T01:28:06.705Z,21.92
2022-08-26T01:30:35.907Z,21.86
2022-08-26T01:33:09.367Z,22.58
2022-08-26T01:35:40.311Z,22.64
2022-08-26T01:38:07.555Z,22.08
2022-08-26T01:40:38.285Z,21.90
2022-08-26T01:43:08.691Z,21.80
2022-08-26T01:45:37.602Z,21.75
2022-08-26T01:48:11.893Z,22.45
2022-08-26T01:50:39.895Z,22.61
2022-08-26T01:53:12.392Z,22.00
2022-08-26T01:55:43.805Z,21.78
2022-08-26T01:58:18.653Z,21.68
2022-08-26T02:00:46.480Z,21.61
2022-08-26T02:03:17.378Z,21.58
2022-08-26T02:06:09.385Z,22.70
2022-08-26T02:08:42.730Z,22.03
2022-08-26T02:11:11.366Z,21.56
2022-08-26T02:13:41.944Z,21.35
2022-08-26T02:16:11.355Z,21.24
2022-08-26T02:18:41.728Z,21.17
2022-08-26T02:21:12.106Z,22.05
2022-08-26T02:23:40.849Z,22.00
2022-08-26T02:26:11.664Z,21.36
2022-08-26T02:28:51.034Z,21.07
2022-08-26T02:31:18.763Z,20.96
2022-08-26T02:33:47.227Z,20.87
2022-08-26T02:36:23.713Z,20.77
2022-08-26T02:38:55.787Z,21.36
2022-08-26T02:41:23.134Z,21.91
2022-08-26T02:43:50.517Z,21.06
2022-08-26T02:46:28.030Z,20.77
2022-08-26T02:48:58.587Z,20.61
2022-08-26T02:51:25.724Z,20.52
2022-08-26T02:53:53.057Z,20.43
2022-08-26T02:56:20.115Z,20.92
2022-08-26T02:58:50.233Z,21.52
2022-08-26T03:01:31.148Z,20.68
2022-08-26T03:04:00.285Z,20.42
2022-08-26T03:06:27.760Z,20.29
2022-08-26T03:08:56.217Z,20.19
2022-08-26T03:11:24.815Z,20.12
2022-08-26T03:13:52.946Z,21.22
2022-08-26T03:16:21.062Z,21.23
2022-08-26T03:18:52.301Z,20.50
2022-08-26T03:21:21.246Z,20.20
2022-08-26T03:23:48.402Z,20.07
2022-08-26T03:26:17.253Z,19.98
2022-08-26T03:29:03.122Z,19.89
2022-08-26T03:31:30.581Z,20.61
2022-08-26T03:33:59.687Z,20.35
2022-08-26T03:36:27.895Z,19.96
2022-08-26T03:38:56.755Z,19.79
2022-08-26T03:41:24.162Z,19.70
2022-08-26T03:43:51.267Z,19.60
2022-08-26T03:46:20.601Z,19.51
2022-08-26T03:48:48.104Z,20.31
2022-08-26T03:51:19.113Z,19.99
2022-08-26T03:53:48.394Z,19.64
2022-08-26T03:56:15.777Z,19.49
2022-08-26T03:58:44.783Z,19.38
2022-08-26T04:01:15.676Z,19.35
2022-08-26T04:04:00.317Z,19.30
2022-08-26T04:06:35.746Z,20.09
2022-08-26T04:09:15.087Z,19.75
2022-08-26T04:11:44.953Z,19.47
2022-08-26T04:14:20.075Z,19.39
2022-08-26T04:16:49.120Z,19.35
2022-08-26T04:19:17.162Z,19.34
2022-08-26T04:21:46.268Z,19.39
2022-08-26T04:24:15.815Z,20.27
2022-08-26T04:26:45.160Z,19.67
2022-08-26T04:29:24.194Z,19.50
2022-08-26T04:31:55.442Z,19.43
2022-08-26T04:34:24.825Z,19.43
2022-08-26T04:36:58.194Z,19.42
2022-08-26T04:39:25.773Z,19.50
2022-08-26T04:41:55.409Z,20.39
2022-08-26T04:44:25.232Z,19.85
2022-08-26T04:46:53.283Z,19.61
2022-08-26T04:49:20.767Z,19.52
2022-08-26T04:51:49.036Z,19.49
2022-08-26T04:54:16.762Z,19.49
2022-08-26T04:56:47.595Z,20.42
2022-08-26T04:59:18.109Z,19.82
2022-08-26T05:01:51.548Z,19.63
2022-08-26T05:04:20.732Z,19.56
2022-08-26T05:06:49.152Z,19.50
2022-08-26T05:09:16.537Z,19.43
2022-08-26T05:11:43.608Z,19.39
2022-08-26T05:14:10.857Z,20.07
2022-08-26T05:16:38.955Z,20.03
2022-08-26T05:19:08.432Z,19.62
2022-08-26T05:21:37.874Z,19.52
2022-08-26T05:24:09.639Z,19.49
2022-08-26T05:26:38.163Z,19.49
2022-08-26T05:29:06.826Z,19.47
2022-08-26T05:31:35.715Z,20.10
2022-08-26T05:34:04.867Z,19.96
2022-08-26T05:36:34.968Z,19.71
2022-08-26T05:39:04.532Z,19.63
2022-08-26T05:41:36.412Z,19.61
2022-08-26T05:44:08.027Z,19.62
2022-08-26T05:46:37.162Z,19.66
2022-08-26T05:49:05.965Z,20.88
2022-08-26T05:51:40.710Z,20.44
2022-08-26T05:54:07.818Z,20.14
2022-08-26T05:56:39.050Z,20.07
2022-08-26T05:59:14.089Z,20.88
2022-08-26T06:01:43.816Z,21.94
2022-08-26T06:04:12.362Z,22.48
2022-08-26T06:06:42.837Z,22.22
2022-08-26T06:09:12.319Z,21.92
2022-08-26T06:11:40.458Z,22.00
2022-08-26T06:14:08.669Z,22.39
2022-08-26T06:16:40.962Z,23.05
2022-08-26T06:19:11.445Z,23.52
2022-08-26T06:21:41.341Z,23.70
2022-08-26T06:24:31.564Z,23.29
2022-08-26T06:27:02.106Z,23.30
2022-08-26T06:29:32.596Z,23.44
2022-08-26T06:32:00.665Z,23.69
2022-08-26T06:34:31.020Z,23.89
2022-08-26T06:37:06.369Z,24.12
2022-08-26T06:39:34.639Z,24.44
2022-08-26T06:42:03.390Z,24.78
2022-08-26T06:44:34.432Z,24.96
2022-08-26T06:47:03.070Z,24.69
2022-08-26T06:49:31.655Z,24.89
2022-08-26T06:51:59.107Z,25.01
2022-08-26T06:54:28.645Z,25.06
2022-08-26T06:56:57.420Z,25.37
2022-08-26T06:59:25.668Z,25.41
2022-08-26T07:01:53.659Z,25.80
2022-08-26T07:04:23.229Z,25.71
2022-08-26T07:06:52.358Z,26.01
2022-08-26T07:09:23.252Z,26.41
2022-08-26T07:11:51.660Z,26.48
2022-08-26T07:14:21.630Z,26.36
2022-08-26T07:16:50.706Z,26.78
2022-08-26T07:19:28.517Z,26.85
2022-08-26T07:22:03.474Z,28.20
2022-08-26T07:24:32.442Z,28.91
2022-08-26T07:27:08.780Z,28.80
2022-08-26T07:29:37.852Z,29.31
2022-08-26T07:32:06.632Z,29.63
2022-08-26T07:34:34.145Z,30.38
2022-08-26T07:37:01.943Z,30.79
2022-08-26T07:39:31.651Z,30.75
2022-08-26T07:42:07.887Z,29.82
2022-08-26T07:44:37.705Z,29.55
2022-08-26T07:47:10.568Z,29.38
2022-08-26T07:49:57.730Z,29.26
2022-08-26T07:52:27.636Z,29.49
2022-08-26T07:55:02.086Z,29.54
2022-08-26T07:57:30.594Z,29.55
2022-08-26T07:59:58.992Z,29.93
2022-08-26T08:02:28.946Z,29.89
2022-08-26T08:04:58.106Z,29.87
2022-08-26T08:07:38.494Z,30.02
2022-08-26T08:10:20.868Z,30.17
2022-08-26T08:12:49.708Z,30.20
2022-08-26T08:15:20.384Z,30.02
2022-08-26T08:17:48.034Z,31.38
2022-08-26T08:20:21.218Z,31.02
2022-08-26T08:22:50.745Z,31.12
2022-08-26T08:25:19.949Z,30.88
2022-08-26T08:27:48.918Z,30.75
2022-08-26T08:30:23.104Z,31.25
2022-08-26T08:32:52.170Z,31.69
2022-08-26T08:35:24.192Z,32.12
2022-08-26T08:37:54.586Z,32.35
2022-08-26T08:40:27.168Z,33.29
2022-08-26T08:43:25.516Z,33.93
2022-08-26T08:46:01.259Z,32.14
2022-08-26T08:48:35.906Z,32.05
2022-08-26T08:51:39.928Z,31.83
2022-08-26T08:54:08.840Z,32.71
2022-08-26T08:57:05.695Z,32.00
2022-08-26T08:59:35.672Z,31.82
2022-08-26T09:02:17.880Z,32.30
2022-08-26T09:04:53.921Z,32.89
2022-08-26T09:07:26.439Z,33.05
2022-08-26T09:09:59.415Z,32.71
2022-08-26T09:12:31.584Z,32.07
2022-08-26T09:15:25.457Z,31.79
2022-08-26T09:18:04.556Z,31.60
2022-08-26T09:20:42.198Z,31.54
2022-08-26T09:23:13.286Z,31.59
2022-08-26T09:28:27.487Z,31.55
2022-08-26T09:31:03.514Z,31.96
2022-08-26T09:33:33.400Z,32.08
2022-08-26T09:36:17.534Z,33.10
2022-08-26T09:38:45.380Z,33.66
2022-08-26T09:41:33.564Z,32.90
2022-08-26T09:44:14.555Z,32.53
2022-08-26T09:47:05.623Z,32.15
2022-08-26T09:49:38.706Z,31.98
2022-08-26T09:52:11.647Z,32.14
2022-08-26T09:54:39.989Z,32.58
2022-08-26T09:57:28.976Z,33.01
2022-08-26T09:59:56.483Z,32.55
2022-08-26T10:02:33.263Z,32.25
2022-08-26T10:05:09.337Z,32.19
2022-08-26T10:07:51.118Z,32.26
2022-08-26T10:10:26.497Z,32.34
2022-08-26T10:13:06.678Z,32.33
2022-08-26T10:15:50.008Z,32.46
2022-08-26T10:18:33.686Z,32.95
2022-08-26T10:21:14.342Z,33.10
2022-08-26T10:23:51.896Z,33.40
2022-08-26T10:27:01.201Z,33.73
2022-08-26T10:29:50.950Z,33.98
2022-08-26T10:32:41.445Z,34.47
2022-08-26T10:35:14.341Z,34.45
2022-08-26T10:38:14.605Z,34.84
2022-08-26T10:40:49.136Z,35.17
2022-08-26T10:43:25.636Z,34.27
2022-08-26T10:46:00.836Z,34.93
2022-08-26T10:48:47.993Z,34.27
2022-08-26T10:51:27.741Z,35.03
2022-08-26T10:54:05.179Z,35.02
2022-08-26T10:56:41.506Z,34.11
2022-08-26T10:59:29.453Z,34.30
2022-08-26T11:02:12.092Z,35.06
2022-08-26T11:04:56.192Z,34.96
2022-08-26T11:07:57.549Z,33.96
2022-08-26T11:10:24.732Z,33.78
2022-08-26T11:13:01.683Z,33.46
2022-08-26T11:15:29.697Z,33.48
2022-08-26T11:18:24.263Z,35.20
2022-08-26T11:20:52.301Z,34.33
2022-08-26T11:23:21.224Z,35.70
2022-08-26T11:26:09.593Z,35.49
2022-08-26T11:28:46.069Z,35.87
2022-08-26T11:31:26.784Z,34.92
2022-08-26T11:34:00.016Z,34.28
2022-08-26T11:36:45.835Z,33.66
2022-08-26T11:39:29.638Z,33.37
2022-08-26T11:42:01.993Z,33.28
2022-08-26T11:44:49.691Z,33.24
2022-08-26T11:47:27.259Z,34.84
2022-08-26T11:50:17.478Z,35.59
2022-08-26T11:53:02.033Z,35.33
2022-08-26T11:55:31.754Z,35.72
2022-08-26T11:58:02.262Z,35.37
2022-08-26T12:00:37.949Z,34.13
2022-08-26T12:03:20.254Z,33.81
2022-08-26T12:05:53.418Z,33.79
2022-08-26T12:08:28.637Z,32.62
2022-08-26T12:11:04.223Z,32.42
2022-08-26T12:13:31.558Z,32.17
2022-08-26T12:16:00.535Z,31.89
2022-08-26T12:18:32.318Z,31.76
2022-08-26T12:21:10.412Z,31.64
2022-08-26T12:23:47.618Z,31.47
2022-08-26T12:26:33.157Z,31.44
2022-08-26T12:29:20.017Z,33.19
2022-08-26T12:31:48.325Z,34.50
2022-08-26T12:34:17.889Z,33.77
2022-08-26T12:39:38.474Z,32.33
2022-08-26T12:42:17.268Z,32.02
2022-08-26T12:45:07.627Z,31.61
2022-08-26T12:47:44.205Z,31.34
2022-08-26T12:50:24.204Z,31.24
2022-08-26T12:53:05.189Z,31.01
2022-08-26T12:55:32.633Z,30.75
2022-08-26T12:58:13.870Z,30.37
2022-08-26T13:00:45.809Z,30.22
2022-08-26T13:03:37.428Z,30.09
2022-08-26T13:06:15.709Z,29.91
2022-08-26T13:08:53.387Z,29.53
2022-08-26T13:11:32.724Z,29.30
2022-08-26T13:14:06.911Z,29.14
2022-08-26T13:16:37.153Z,29.01
2022-08-26T13:19:14.823Z,28.95
2022-08-26T13:21:48.747Z,27.91
2022-08-26T13:24:20.065Z,28.08
2022-08-26T13:26:49.816Z,28.16
2022-08-26T13:29:18.908Z,27.95
2022-08-26T13:31:47.273Z,27.98
2022-08-26T13:34:20.995Z,27.26
2022-08-26T13:36:50.367Z,27.38
2022-08-26T13:39:18.413Z,27.59
2022-08-26T13:41:46.535Z,27.78
2022-08-26T13:44:14.301Z,28.64
2022-08-26T13:46:42.151Z,27.35
2022-08-26T13:49:10.070Z,27.45
2022-08-26T13:51:37.999Z,28.35
2022-08-26T13:54:06.175Z,28.41
2022-08-26T13:56:34.732Z,26.75
2022-08-26T13:59:02.289Z,26.69
2022-08-26T14:01:31.817Z,27.21
2022-08-26T14:03:59.352Z,26.97
2022-08-26T14:06:27.031Z,25.51
2022-08-26T14:08:54.335Z,25.85
2022-08-26T14:11:21.685Z,26.51
2022-08-26T14:13:48.919Z,26.82
2022-08-26T14:16:27.348Z,26.78
2022-08-26T14:18:55.191Z,26.59
2022-08-26T14:21:25.593Z,26.95
2022-08-26T14:23:53.110Z,27.15
2022-08-26T14:26:28.699Z,27.42
2022-08-26T14:28:59.185Z,26.28
2022-08-26T14:31:29.538Z,25.43
2022-08-26T14:34:04.375Z,26.15
2022-08-26T14:36:32.695Z,27.08
2022-08-26T14:39:07.552Z,25.74
2022-08-26T14:41:38.991Z,25.33
2022-08-26T14:44:11.517Z,25.90
2022-08-26T14:46:49.019Z,25.29
2022-08-26T14:49:17.892Z,24.47
2022-08-26T14:51:45.897Z,25.88
2022-08-26T14:54:14.494Z,25.38
2022-08-26T14:57:04.013Z,25.27
2022-08-26T14:59:39.953Z,25.62
2022-08-26T15:02:11.565Z,24.24
2022-08-26T15:04:41.980Z,24.95
2022-08-26T15:07:09.779Z,23.74
2022-08-26T15:09:41.418Z,22.97
2022-08-26T15:12:09.013Z,23.17
2022-08-26T15:14:36.683Z,23.81
2022-08-26T15:17:04.981Z,22.93
2022-08-26T15:19:34.808Z,22.48
2022-08-26T15:22:02.212Z,22.30
2022-08-26T15:24:29.759Z,23.84
2022-08-26T15:26:57.481Z,23.21
2022-08-26T15:29:24.785Z,22.38
2022-08-26T15:31:55.185Z,22.02
2022-08-26T15:34:25.134Z,22.36
2022-08-26T15:36:52.593Z,22.12
2022-08-26T15:39:20.539Z,21.78
2022-08-26T15:41:47.935Z,21.59
2022-08-26T15:44:17.498Z,21.74
2022-08-26T15:46:45.832Z,21.54
2022-08-26T15:49:17.589Z,21.32
2022-08-26T15:51:48.223Z,21.13
2022-08-26T15:54:19.751Z,21.31
2022-08-26T15:56:52.461Z,21.17
2022-08-26T15:59:21.885Z,20.92
2022-08-26T16:01:50.391Z,20.74
2022-08-26T16:04:18.829Z,20.62
2022-08-26T16:06:50.487Z,20.95
2022-08-26T16:09:21.030Z,20.72
2022-08-26T16:11:48.442Z,20.52
2022-08-26T16:14:15.824Z,20.40
2022-08-26T16:16:43.505Z,20.29
2022-08-26T16:19:11.894Z,20.63
2022-08-26T16:21:40.692Z,20.51
2022-08-26T16:24:08.883Z,20.32
2022-08-26T16:26:38.665Z,20.18
2022-08-26T16:29:10.430Z,20.14
2022-08-26T16:31:38.870Z,20.46
2022-08-26T16:34:07.429Z,20.40
2022-08-26T16:36:38.733Z,20.18
2022-08-26T16:39:08.162Z,20.10
2022-08-26T16:41:35.970Z,20.03
2022-08-26T16:44:04.691Z,20.20
2022-08-26T16:46:32.464Z,20.65
2022-08-26T16:49:01.765Z,20.17
2022-08-26T16:51:29.718Z,20.04
2022-08-26T16:53:59.072Z,19.98
2022-08-26T16:56:33.925Z,19.91
2022-08-26T16:59:05.278Z,20.40
2022-08-26T17:01:32.865Z,20.16
2022-08-26T17:04:00.155Z,19.92
2022-08-26T17:06:27.406Z,19.79
2022-08-26T17:08:54.729Z,19.70
2022-08-26T17:11:21.920Z,19.83
2022-08-26T17:13:49.011Z,20.22
2022-08-26T17:16:16.593Z,19.81
2022-08-26T17:18:43.879Z,19.69
2022-08-26T17:21:13.400Z,19.60
2022-08-26T17:23:42.688Z,19.55
2022-08-26T17:26:12.234Z,19.77
2022-08-26T17:28:42.269Z,19.97
2022-08-26T17:31:11.588Z,19.64
2022-08-26T17:33:39.637Z,19.51
2022-08-26T17:36:08.893Z,19.41
2022-08-26T17:38:37.907Z,19.37
2022-08-26T17:41:09.745Z,19.72
2022-08-26T17:43:39.347Z,19.67
2022-08-26T17:46:09.120Z,19.37
2022-08-26T17:48:37.707Z,19.27
2022-08-26T17:51:14.267Z,19.20
2022-08-26T17:53:42.639Z,19.13
2022-08-26T17:56:11.737Z,19.28
2022-08-26T17:58:47.908Z,19.56
2022-08-26T18:01:20.651Z,19.18
2022-08-26T18:03:48.689Z,19.05
2022-08-26T18:06:16.287Z,18.97
2022-08-26T18:08:44.277Z,18.91
2022-08-26T18:11:21.077Z,18.85
2022-08-26T18:13:48.274Z,19.50
2022-08-26T18:16:17.906Z,19.09
2022-08-26T18:18:46.765Z,18.85
2022-08-26T18:21:23.806Z,18.75
2022-08-26T18:23:52.433Z,18.68
2022-08-26T18:26:29.534Z,18.60
2022-08-26T18:28:57.171Z,18.73
2022-08-26T18:31:25.133Z,19.00
2022-08-26T18:33:53.188Z,18.72
2022-08-26T18:36:26.928Z,18.59
2022-08-26T18:38:55.398Z,18.52
2022-08-26T18:41:26.383Z,18.50
2022-08-26T18:43:54.416Z,18.44
2022-08-26T18:46:25.599Z,18.72
2022-08-26T18:48:54.853Z,18.72
2022-08-26T18:51:28.280Z,18.52
2022-08-26T18:53:58.503Z,18.45
2022-08-26T18:56:26.035Z,18.41
2022-08-26T18:58:55.547Z,18.37
2022-08-26T19:01:27.250Z,18.33
2022-08-26T19:03:56.301Z,18.33
2022-08-26T19:06:26.822Z,18.74
2022-08-26T19:08:54.387Z,18.52
2022-08-26T19:11:31.203Z,18.41
2022-08-26T19:14:01.803Z,18.35
2022-08-26T19:16:31.229Z,18.32
2022-08-26T19:19:00.897Z,18.29
2022-08-26T19:21:29.869Z,18.24
2022-08-26T19:24:02.778Z,18.36
2022-08-26T19:26:31.977Z,18.63
2022-08-26T19:29:02.793Z,18.38
2022-08-26T19:31:30.335Z,18.30
2022-08-26T19:33:58.240Z,18.25
2022-08-26T19:36:26.981Z,18.21
2022-08-26T19:38:54.843Z,18.16
2022-08-26T19:41:37.287Z,18.14
2022-08-26T19:44:13.373Z,18.09
2022-08-26T19:46:44.925Z,18.51
2022-08-26T19:49:12.463Z,18.35
2022-08-26T19:51:40.050Z,18.17
2022-08-26T19:54:08.143Z,18.12
2022-08-26T19:56:35.406Z,18.06
2022-08-26T19:59:03.437Z,18.04
2022-08-26T20:01:31.175Z,17.99
2022-08-26T20:03:58.687Z,17.96
2022-08-26T20:06:25.934Z,18.35
2022-08-26T20:08:56.147Z,18.18
2022-08-26T20:11:24.096Z,18.04
2022-08-26T20:13:51.552Z,17.98
2022-08-26T20:16:19.143Z,17.94
2022-08-26T20:19:05.271Z,17.91
2022-08-26T20:21:36.234Z,17.89
2022-08-26T20:24:13.450Z,18.15
2022-08-26T20:26:42.813Z,18.26
2022-08-26T20:29:13.374Z,18.03
2022-08-26T20:31:42.617Z,17.96
2022-08-26T20:34:10.895Z,17.92
2022-08-26T20:36:39.814Z,17.89
2022-08-26T20:39:07.339Z,17.88
2022-08-26T20:41:35.805Z,17.90
2022-08-26T20:44:06.609Z,18.81
2022-08-26T20:46:38.309Z,18.30
2022-08-26T20:49:07.395Z,18.05
2022-08-26T20:51:37.596Z,17.97
2022-08-26T20:54:06.752Z,17.92
2022-08-26T20:56:34.681Z,17.89
2022-08-26T20:59:03.331Z,17.86
2022-08-26T21:01:34.772Z,17.87
2022-08-26T21:04:05.252Z,18.10
2022-08-26T21:06:34.132Z,18.24
2022-08-26T21:09:04.530Z,18.01
2022-08-26T21:11:33.110Z,17.93
2022-08-26T21:14:06.670Z,17.90
2022-08-26T21:16:39.609Z,17.87
2022-08-26T21:19:11.902Z,17.87
2022-08-26T21:21:40.934Z,17.84
2022-08-26T21:24:09.337Z,18.01
2022-08-26T21:26:37.018Z,18.20
2022-08-26T21:29:08.196Z,17.97
2022-08-26T21:31:39.143Z,17.90
2022-08-26T21:34:08.468Z,17.83
2022-08-26T21:36:35.940Z,17.81
2022-08-26T21:39:07.002Z,17.78
2022-08-26T21:41:38.321Z,17.76
2022-08-26T21:44:05.425Z,18.06
2022-08-26T21:46:34.714Z,18.12
2022-08-26T21:49:03.723Z,17.88
2022-08-26T21:51:41.174Z,17.79
2022-08-26T21:54:11.061Z,17.74
2022-08-26T21:56:42.497Z,17.72
2022-08-26T21:59:10.550Z,17.68
2022-08-26T22:01:38.257Z,17.62
2022-08-26T22:04:08.159Z,18.01
2022-08-26T22:06:41.894Z,17.86
2022-08-26T22:09:10.816Z,17.73
2022-08-26T22:11:37.939Z,17.65
2022-08-26T22:14:07.234Z,17.61
2022-08-26T22:16:34.712Z,17.56
2022-08-26T22:19:02.316Z,17.52
2022-08-26T22:21:29.521Z,17.51
2022-08-26T22:23:58.431Z,17.76
2022-08-26T22:26:29.368Z,17.78
2022-08-26T22:28:59.393Z,17.59
2022-08-26T22:31:37.283Z,17.52
2022-08-26T22:34:11.840Z,17.48
2022-08-26T22:36:44.284Z,17.44
2022-08-26T22:39:17.398Z,17.42
2022-08-26T22:41:46.240Z,17.38
2022-08-26T22:44:13.480Z,17.70
2022-08-26T22:46:42.267Z,17.60
2022-08-26T22:49:11.570Z,17.47
2022-08-26T22:51:39.457Z,17.40
2022-08-26T22:54:06.683Z,17.36
2022-08-26T22:56:35.011Z,17.34
2022-08-26T22:59:02.162Z,17.30
2022-08-26T23:01:31.430Z,17.61
2022-08-26T23:03:58.531Z,17.65
2022-08-26T23:06:25.724Z,17.46
2022-08-26T23:08:53.320Z,17.38
2022-08-26T23:11:23.721Z,17.33
2022-08-26T23:13:52.102Z,17.32
2022-08-26T23:16:19.593Z,17.30
2022-08-26T23:18:47.329Z,17.29
2022-08-26T23:21:15.425Z,17.61
2022-08-26T23:23:45.672Z,17.48
2022-08-26T23:26:17.393Z,17.36
2022-08-26T23:28:45.050Z,17.30
2022-08-26T23:31:12.650Z,17.28
2022-08-26T23:33:58.634Z,17.25
2022-08-26T23:36:25.841Z,17.72
2022-08-26T23:38:53.581Z,17.60
2022-08-26T23:41:22.752Z,17.36
2022-08-26T23:43:51.728Z,17.28
2022-08-26T23:46:19.993Z,17.29
2022-08-26T23:48:47.843Z,17.66
2022-08-26T23:51:33.833Z,17.40
2022-08-26T23:54:01.373Z,17.24
2022-08-26T23:56:29.352Z,17.19
2022-08-26T23:58:57.046Z,17.14
